Time;durP1;ratioP1;P1;durP2;ratioP2;P2;SDS_P1;SDS_P2;PMS_P1;PMS_P2;Temp;Humidity;BMP_temperature;BMP_pressure;BME280_temperature;BME280_humidity;BME280_pressure;Samples;Min_cycle;Max_cycle;Signal;HPM_P1;HPM_P2
2022/11/18 00:02:20;;;;;;;10.43;2.10;;;;;;;11.60;80.51;99285.56;5014986;28;20061;-60
2022/11/18 00:04:48;;;;;;;8.57;2.38;;;;;;;11.30;81.74;99290.69;5013021;28;20060;-60
2022/11/18 00:07:15;;;;;;;4.68;1.80;;;;;;;11.53;81.37;99299.97;5014150;28;20064;-60
2022/11/18 00:09:43;;;;;;;7.22;2.10;;;;;;;11.59;80.04;99301.31;5015168;28;20042;-60
2022/11/18 00:14:56;;;;;;;7.68;1.77;;;;;;;11.83;79.20;99312.22;5015289;28;20080;-60
2022/11/18 00:17:23;;;;;;;6.40;1.90;;;;;;;11.85;78.30;99311.88;4998287;28;20050;-60
2022/11/18 00:19:50;;;;;;;9.65;2.67;;;;;;;11.81;78.83;99319.25;5015031;28;20053;-60
2022/11/18 00:22:18;;;;;;;10.00;2.20;;;;;;;11.64;78.73;99328.66;5008527;28;20081;-59
2022/11/18 00:24:45;;;;;;;10.48;1.80;;;;;;;11.73;79.12;99337.59;4993326;28;20046;-60
2022/11/18 00:27:12;;;;;;;8.00;2.35;;;;;;;11.84;77.89;99335.06;5006774;28;20061;-59
2022/11/18 00:29:40;;;;;;;8.32;1.90;;;;;;;11.70;79.16;99341.03;5013670;28;20038;-66
2022/11/18 00:32:07;;;;;;;5.10;1.90;;;;;;;11.74;78.90;99336.41;5018542;28;20066;-65
2022/11/18 00:34:34;;;;;;;6.65;1.65;;;;;;;11.66;79.12;99356.72;4995125;28;20054;-60
2022/11/18 00:37:02;;;;;;;6.40;1.88;;;;;;;11.62;78.81;99366.81;5010072;28;20045;-60
2022/11/18 00:39:29;;;;;;;6.38;1.63;;;;;;;11.62;79.10;99358.53;5014832;28;20045;-60
2022/11/18 00:44:42;;;;;;;11.40;1.80;;;;;;;11.65;78.95;99365.31;5013554;28;20048;-60
2022/11/18 00:47:09;;;;;;;8.02;1.95;;;;;;;11.78;78.19;99367.66;5012049;28;20073;-61
2022/11/18 00:49:37;;;;;;;9.38;2.03;;;;;;;12.00;77.39;99372.56;5015192;28;20540;-60
2022/11/18 00:52:05;;;;;;;5.88;1.40;;;;;;;11.56;79.06;99381.22;5013500;28;20050;-60
2022/11/18 00:54:32;;;;;;;7.03;1.90;;;;;;;11.48;79.37;99387.66;4996649;28;20081;-66
2022/11/18 00:56:59;;;;;;;6.38;1.30;;;;;;;11.37;79.78;99389.34;4997638;28;20647;-66
2022/11/18 00:59:26;;;;;;;7.03;1.70;;;;;;;11.37;80.27;99386.56;5009846;28;20644;-66
2022/11/18 01:01:54;;;;;;;11.68;1.98;;;;;;;11.30;80.48;99387.97;5024791;28;20057;-65
2022/11/18 01:04:21;;;;;;;4.18;1.40;;;;;;;11.48;79.70;99388.47;5033151;28;20393;-72
2022/11/18 01:06:49;;;;;;;9.00;1.70;;;;;;;11.38;80.39;99388.97;5028900;28;20042;-67
2022/11/18 01:09:16;;;;;;;6.57;1.42;;;;;;;11.29;80.77;99388.31;5014742;28;20528;-67
2022/11/18 01:14:30;;;;;;;6.05;1.60;;;;;;;11.37;80.72;99387.34;5002204;28;20060;-66
2022/11/18 01:16:57;;;;;;;7.72;1.77;;;;;;;11.51;79.91;99392.47;5013136;28;20045;-66
2022/11/18 01:19:24;;;;;;;3.17;1.13;;;;;;;11.45;80.35;99389.19;5004572;28;20057;-66
2022/11/18 01:21:52;;;;;;;6.28;1.50;;;;;;;11.34;80.88;99399.09;5019247;28;20529;-66
2022/11/18 01:24:19;;;;;;;8.60;1.88;;;;;;;11.46;81.07;99403.75;4994612;28;20074;-66
2022/11/18 01:26:47;;;;;;;6.38;1.38;;;;;;;11.58;79.81;99400.94;5007542;28;20054;-67
2022/11/18 01:29:14;;;;;;;5.30;1.40;;;;;;;11.59;79.27;99402.56;5028298;28;20042;-66
2022/11/18 01:31:42;;;;;;;8.02;1.38;;;;;;;11.44;79.08;99400.56;5009773;28;20054;-66
2022/11/18 01:34:30;;;;;;;8.15;1.65;;;;;;;11.44;79.38;99400.56;5011442;28;20482;-66
2022/11/18 01:36:57;;;;;;;3.88;1.25;;;;;;;11.55;78.71;99409.91;5012550;28;20053;-66
2022/11/18 01:39:24;;;;;;;5.25;1.25;;;;;;;11.57;78.61;99410.38;5020224;28;20046;-66
2022/11/18 01:41:52;;;;;;;5.47;1.17;;;;;;;11.50;78.84;99413.75;5026698;28;20056;-66
2022/11/18 01:45:10;;;;;;;5.40;1.23;;;;;;;11.30;79.75;99415.53;5030027;28;20049;-67
2022/11/18 01:47:57;;;;;;;7.50;1.50;;;;;;;11.28;80.23;99419.78;4986154;28;20046;-67
2022/11/18 01:50:25;;;;;;;5.97;1.20;;;;;;;11.38;80.25;99425.59;4999255;28;20046;-66
2022/11/18 01:52:56;;;;;;;4.75;1.35;;;;;;;11.32;80.33;99424.25;5016954;28;20390;-66
2022/11/18 01:55:25;;;;;;;3.95;0.98;;;;;;;11.33;79.69;99431.38;5014846;28;20042;-66
2022/11/18 01:58:01;;;;;;;4.85;1.23;;;;;;;11.38;79.88;99424.81;5016580;28;20042;-67
2022/11/18 02:00:29;;;;;;;5.38;0.90;;;;;;;11.40;79.60;99428.03;5014885;28;20054;-66
2022/11/18 02:02:56;;;;;;;5.35;1.95;;;;;;;11.40;80.02;99438.25;5006342;28;20529;-66
2022/11/18 02:05:24;;;;;;;4.38;1.60;;;;;;;11.58;79.24;99445.88;5014700;28;20058;-66
2022/11/18 02:07:51;;;;;;;6.32;1.50;;;;;;;11.42;79.22;99436.72;4999742;28;20062;-60
2022/11/18 02:10:21;;;;;;;6.72;1.20;;;;;;;11.45;79.53;99440.75;5013098;28;20038;-62
2022/11/18 02:12:50;;;;;;;5.20;1.33;;;;;;;11.42;79.83;99449.72;4998235;28;20057;-60
2022/11/18 02:15:24;;;;;;;5.32;1.10;;;;;;;11.36;79.78;99451.94;4998302;28;20054;-59
2022/11/18 02:18:00;;;;;;;6.32;1.35;;;;;;;11.48;79.58;99459.34;4996779;28;20141;-66
2022/11/18 02:20:30;;;;;;;7.05;1.35;;;;;;;11.54;79.12;99464.25;4999117;28;20054;-66
2022/11/18 02:23:35;;;;;;;5.57;1.10;;;;;;;11.50;79.54;99457.06;5012377;28;20061;-67
2022/11/18 02:26:12;;;;;;;4.18;1.15;;;;;;;11.43;79.66;99460.41;5002294;28;20049;-66
2022/11/18 02:28:49;;;;;;;6.80;1.50;;;;;;;11.46;79.78;99453.38;5017249;28;20081;-66
2022/11/18 02:31:28;;;;;;;4.78;0.98;;;;;;;11.32;80.16;99459.28;5011160;28;20034;-66
2022/11/18 02:34:17;;;;;;;3.53;0.90;;;;;;;11.46;79.81;99462.47;5012590;28;20685;-66
2022/11/18 02:36:52;;;;;;;7.13;1.55;;;;;;;11.29;80.06;99468.25;5009270;28;20050;-60
2022/11/18 02:39:25;;;;;;;8.60;1.45;;;;;;;11.36;79.85;99476.75;5026785;28;20519;-60
2022/11/18 02:41:54;;;;;;;5.82;1.17;;;;;;;11.07;80.68;99471.53;5009420;28;20061;-67
2022/11/18 02:44:24;;;;;;;5.28;1.10;;;;;;;11.11;80.92;99467.72;5015629;28;20061;-66
2022/11/18 02:46:55;;;;;;;5.03;1.25;;;;;;;11.07;81.37;99483.31;5030816;28;20053;-65
2022/11/18 02:49:35;;;;;;;5.43;1.48;;;;;;;11.18;81.23;99483.66;4983220;28;20069;-66
2022/11/18 02:52:03;;;;;;;5.18;1.08;;;;;;;11.19;81.09;99482.53;5016541;28;20076;-66
2022/11/18 02:54:32;;;;;;;7.43;1.27;;;;;;;11.38;80.18;99488.22;4996563;28;20049;-66
2022/11/18 02:57:00;;;;;;;12.45;1.40;;;;;;;11.37;80.31;99488.56;4997250;28;20516;-67
2022/11/18 02:59:27;;;;;;;5.93;1.60;;;;;;;11.24;80.32;99485.03;4995423;28;20057;-66
2022/11/18 03:01:55;;;;;;;6.47;1.42;;;;;;;11.30;80.20;99484.44;5015868;28;20124;-67
2022/11/18 03:04:24;;;;;;;5.57;1.17;;;;;;;11.32;80.08;99484.09;5014601;28;20054;-66
2022/11/18 03:07:31;;;;;;;7.47;1.33;;;;;;;11.63;78.88;99478.72;5009735;28;20057;-66
2022/11/18 03:09:59;;;;;;;5.53;1.30;;;;;;;11.39;79.19;99495.34;4987859;28;20050;-60
2022/11/18 03:12:48;;;;;;;7.13;1.30;;;;;;;11.61;78.41;99497.56;5010902;28;20045;-60
2022/11/18 03:15:28;;;;;;;5.80;1.27;;;;;;;11.55;77.98;99503.69;5014954;28;20069;-60
2022/11/18 03:18:10;;;;;;;6.37;1.23;;;;;;;11.63;78.57;99495.25;5016419;28;20050;-60
2022/11/18 03:20:44;;;;;;;7.45;1.10;;;;;;;11.31;78.42;99494.31;5008622;28;20046;-60
2022/11/18 03:23:36;;;;;;;7.18;1.33;;;;;;;11.13;79.80;99500.44;5014463;28;20073;-60
2022/11/18 03:26:19;;;;;;;5.32;1.10;;;;;;;11.10;80.06;99507.47;5012002;28;20054;-60
2022/11/18 03:29:06;;;;;;;6.28;1.00;;;;;;;11.12;80.30;99507.09;5025806;28;20065;-67
2022/11/18 03:31:39;;;;;;;4.28;1.10;;;;;;;11.05;80.38;99515.16;5007183;28;20592;-67
2022/11/18 03:34:11;;;;;;;7.72;1.17;;;;;;;11.15;80.00;99509.97;5014619;28;20058;-66
2022/11/18 03:36:41;;;;;;;5.75;1.20;;;;;;;11.13;80.21;99515.03;5013199;28;20068;-67
2022/11/18 03:39:11;;;;;;;6.47;1.20;;;;;;;11.08;80.27;99520.78;5016099;28;20058;-66
2022/11/18 03:41:42;;;;;;;4.40;1.27;;;;;;;11.04;80.64;99514.34;5029694;28;20048;-66
2022/11/18 03:44:15;;;;;;;9.70;1.30;;;;;;;11.09;80.34;99518.81;5032145;28;20053;-66
2022/11/18 03:46:50;;;;;;;5.53;1.33;;;;;;;11.10;80.33;99526.75;5006439;28;20494;-61
2022/11/18 03:49:29;;;;;;;7.18;1.35;;;;;;;11.01;80.67;99528.81;4994950;28;20055;-60
2022/11/18 03:52:01;;;;;;;4.53;0.93;;;;;;;10.84;81.44;99540.06;5008309;28;20080;-60
2022/11/18 03:54:30;;;;;;;4.32;1.15;;;;;;;11.01;81.31;99539.84;5030194;28;20050;-60
2022/11/18 03:57:16;;;;;;;6.18;1.05;;;;;;;10.93;80.79;99546.25;5012492;28;20400;-66
2022/11/18 03:59:47;;;;;;;4.75;1.00;;;;;;;10.95;81.26;99552.22;5014618;28;20057;-66
2022/11/18 04:02:17;;;;;;;6.85;1.17;;;;;;;10.95;81.40;99545.91;5011231;28;20477;-60
2022/11/18 04:04:47;;;;;;;5.18;1.10;;;;;;;11.14;80.76;99559.94;4996385;28;20053;-66
2022/11/18 04:07:37;;;;;;;10.53;1.23;;;;;;;11.03;80.88;99564.28;5010774;28;20062;-67
2022/11/18 04:10:10;;;;;;;4.90;1.00;;;;;;;11.11;80.78;99560.59;5000531;28;20312;-67
2022/11/18 04:12:52;;;;;;;5.22;1.15;;;;;;;11.17;80.34;99562.00;5009686;28;20416;-61
2022/11/18 04:15:19;;;;;;;5.53;1.40;;;;;;;11.13;80.47;99569.34;5028250;28;20054;-60
2022/11/18 04:17:47;;;;;;;12.98;1.23;;;;;;;11.12;80.40;99585.06;5009359;28;20061;-60
2022/11/18 04:20:17;;;;;;;5.05;0.80;;;;;;;11.04;80.28;99585.16;5010536;28;20058;-66
2022/11/18 04:22:45;;;;;;;8.25;1.52;;;;;;;10.99;80.84;99594.47;5005259;28;20057;-66
2022/11/18 04:25:12;;;;;;;5.90;1.10;;;;;;;10.82;81.48;99593.88;5014199;28;20054;-67
2022/11/18 04:27:39;;;;;;;8.05;1.40;;;;;;;10.86;81.90;99597.56;5009421;28;20812;-66
2022/11/18 04:30:07;;;;;;;6.18;1.50;;;;;;;10.88;81.44;99607.09;5012989;28;20045;-60
2022/11/18 04:32:35;;;;;;;7.95;1.33;;;;;;;10.94;81.09;99600.22;5029808;28;20054;-60
2022/11/18 04:35:02;;;;;;;12.00;1.70;;;;;;;10.96;81.00;99605.38;5014973;28;20050;-60
2022/11/18 04:37:30;;;;;;;8.05;1.55;;;;;;;10.91;81.28;99611.13;5021987;28;20054;-61
2022/11/18 04:39:57;;;;;;;9.55;1.88;;;;;;;11.05;80.97;99600.56;5013494;28;20400;-60
2022/11/18 04:42:24;;;;;;;7.50;1.30;;;;;;;10.97;80.82;99601.47;5026832;28;20106;-60
2022/11/18 04:44:52;;;;;;;8.77;1.25;;;;;;;10.97;80.94;99607.78;5013797;28;20060;-66
2022/11/18 04:47:19;;;;;;;10.50;1.70;;;;;;;10.99;81.11;99611.00;5014173;28;20053;-66
2022/11/18 04:49:47;;;;;;;12.57;1.60;;;;;;;10.84;81.57;99610.88;5015255;28;20058;-66
2022/11/18 04:52:14;;;;;;;8.68;1.58;;;;;;;10.97;81.36;99612.47;5013313;28;20042;-67
2022/11/18 04:54:42;;;;;;;8.85;1.90;;;;;;;10.81;81.64;99617.84;5011609;28;20050;-61
2022/11/18 04:57:09;;;;;;;9.23;1.60;;;;;;;10.87;81.90;99621.19;5014626;28;20061;-67
2022/11/18 04:59:37;;;;;;;5.72;1.55;;;;;;;10.65;81.88;99629.88;5013106;28;20406;-61
2022/11/18 05:02:04;;;;;;;11.05;1.90;;;;;;;10.82;81.64;99625.00;5009560;28;20058;-66
2022/11/18 05:04:33;;;;;;;7.30;1.52;;;;;;;10.77;81.70;99627.16;5034872;28;20049;-66
2022/11/18 05:07:02;;;;;;;6.82;1.67;;;;;;;11.13;79.94;99630.78;5017939;28;20524;-67
2022/11/18 05:09:30;;;;;;;6.80;1.67;;;;;;;10.86;80.85;99634.16;5018572;28;20514;-67
2022/11/18 05:14:45;;;;;;;8.93;2.20;;;;;;;11.02;80.77;99637.88;5004080;28;20058;-66
2022/11/18 05:17:17;;;;;;;10.45;1.70;;;;;;;10.92;80.56;99635.56;5030079;28;20050;-60
2022/11/18 05:19:44;;;;;;;8.60;2.00;;;;;;;10.87;80.98;99640.50;5018768;28;20054;-66
2022/11/18 05:22:13;;;;;;;14.30;2.25;;;;;;;10.75;80.85;99641.28;5016708;28;20049;-67
2022/11/18 05:24:40;;;;;;;11.85;1.70;;;;;;;10.83;81.26;99642.31;5018330;28;20065;-66
2022/11/18 05:27:08;;;;;;;8.32;1.95;;;;;;;10.98;80.51;99638.91;5032819;28;20077;-67
2022/11/18 05:29:35;;;;;;;10.25;1.85;;;;;;;10.68;80.49;99648.47;5014980;28;20501;-60
2022/11/18 05:32:02;;;;;;;12.95;2.00;;;;;;;10.75;81.07;99649.53;5017790;28;20065;-60
2022/11/18 05:34:30;;;;;;;14.25;2.20;;;;;;;10.83;80.77;99648.63;5017036;28;20068;-60
2022/11/18 05:36:57;;;;;;;12.27;2.10;;;;;;;10.72;80.78;99655.69;5015093;28;20061;-60
2022/11/18 05:39:24;;;;;;;13.20;2.72;;;;;;;10.67;80.88;99655.91;5019206;28;20058;-60
2022/11/18 05:44:37;;;;;;;12.13;2.03;;;;;;;10.79;80.55;99661.47;5005036;28;20069;-66
2022/11/18 05:47:05;;;;;;;12.60;2.20;;;;;;;10.95;79.74;99673.44;5012842;28;20069;-66
2022/11/18 05:49:32;;;;;;;11.43;2.28;;;;;;;10.71;79.88;99673.38;5018446;28;20054;-66
2022/11/18 05:51:59;;;;;;;16.05;2.55;;;;;;;10.66;80.53;99672.78;5017570;28;20045;-66
2022/11/18 05:54:27;;;;;;;10.38;2.03;;;;;;;10.53;80.86;99665.66;5006707;28;20081;-66
2022/11/18 05:56:54;;;;;;;16.83;2.25;;;;;;;10.75;80.36;99676.28;5011236;28;20061;-60
2022/11/18 05:59:22;;;;;;;13.30;2.13;;;;;;;10.72;79.78;99677.75;5030847;28;20506;-61
2022/11/18 06:01:55;;;;;;;13.68;1.90;;;;;;;10.84;79.65;99690.75;5015435;28;20050;-60
2022/11/18 06:04:27;;;;;;;11.15;2.33;;;;;;;10.73;80.08;99679.38;5014082;28;20156;-61
2022/11/18 06:06:58;;;;;;;12.90;2.38;;;;;;;10.59;80.30;99684.38;5023697;28;20054;-60
2022/11/18 06:09:27;;;;;;;11.35;2.15;;;;;;;10.55;80.10;99690.91;5015129;28;23122;-62
2022/11/18 06:11:56;;;;;;;11.60;2.25;;;;;;;10.81;79.94;99694.22;5014724;28;20053;-60
2022/11/18 06:14:29;;;;;;;17.95;2.33;;;;;;;10.76;79.40;99697.97;5016234;28;20052;-61
2022/11/18 06:16:59;;;;;;;10.48;2.22;;;;;;;10.71;79.49;99700.13;4999350;28;20046;-60
2022/11/18 06:19:27;;;;;;;13.63;2.63;;;;;;;10.54;80.14;99708.53;5012827;28;20163;-60
2022/11/18 06:21:54;;;;;;;11.50;2.28;;;;;;;10.64;79.63;99717.19;5011015;28;20046;-67
2022/11/18 06:24:22;;;;;;;17.23;2.30;;;;;;;10.53;80.09;99715.19;5017354;28;20054;-60
2022/11/18 06:26:50;;;;;;;19.05;2.30;;;;;;;10.41;80.16;99726.16;5014575;28;20046;-67
2022/11/18 06:29:19;;;;;;;11.77;2.20;;;;;;;10.48;80.37;99727.22;5011988;28;20038;-62
2022/11/18 06:31:53;;;;;;;17.50;2.58;;;;;;;10.58;80.09;99735.09;5000280;28;20046;-61
2022/11/18 06:34:21;;;;;;;12.77;2.15;;;;;;;10.85;79.47;99719.91;5017093;28;20060;-60
2022/11/18 06:36:48;;;;;;;10.32;2.17;;;;;;;10.73;79.29;99737.19;5006456;28;20057;-62
2022/11/18 06:39:15;;;;;;;11.75;2.15;;;;;;;10.68;79.67;99742.91;5015202;28;20627;-66
2022/11/18 06:41:43;;;;;;;17.40;7.35;;;;;;;10.65;79.46;99743.56;5010145;28;20538;-67
2022/11/18 06:44:11;;;;;;;26.58;11.48;;;;;;;10.76;79.29;99749.47;5014496;28;20149;-66
2022/11/18 06:46:57;;;;;;;26.08;11.00;;;;;;;10.65;79.30;99751.84;5009188;28;20085;-65
2022/11/18 06:49:26;;;;;;;26.65;9.07;;;;;;;10.62;79.43;99758.03;5016315;28;20053;-66
2022/11/18 06:51:53;;;;;;;12.80;3.47;;;;;;;10.50;79.66;99754.41;5031157;28;20049;-67
2022/11/18 06:54:21;;;;;;;11.82;2.50;;;;;;;10.35;79.88;99757.75;5002446;28;20054;-67
2022/11/18 06:56:48;;;;;;;12.43;3.38;;;;;;;10.49;79.80;99759.13;5008629;28;20512;-67
2022/11/18 06:59:22;;;;;;;23.05;8.75;;;;;;;10.37;80.07;99770.06;5016559;28;20057;-68
2022/11/18 07:01:51;;;;;;;17.98;2.95;;;;;;;10.37;80.29;99772.00;5010210;28;20050;-60
2022/11/18 07:04:19;;;;;;;17.02;3.20;;;;;;;10.50;79.88;99776.44;5023004;28;20045;-60
2022/11/18 07:06:47;;;;;;;15.30;3.15;;;;;;;10.42;80.09;99786.38;5009800;28;20053;-61
2022/11/18 07:09:15;;;;;;;14.07;2.33;;;;;;;10.34;80.24;99780.94;5005970;28;20654;-61
2022/11/18 07:11:42;;;;;;;10.63;2.45;;;;;;;10.38;80.09;99795.63;5015995;28;20053;-60
2022/11/18 07:14:11;;;;;;;12.57;2.50;;;;;;;10.50;79.51;99792.94;5014352;28;20102;-62
2022/11/18 07:16:38;;;;;;;18.23;4.00;;;;;;;10.47;79.66;99794.44;5003955;28;20057;-60
2022/11/18 07:19:10;;;;;;;29.83;9.13;;;;;;;10.39;79.81;99798.03;5004640;28;20049;-63
2022/11/18 07:21:38;;;;;;;13.35;3.38;;;;;;;10.35;80.16;99802.63;5007639;28;20053;-61
2022/11/18 07:24:06;;;;;;;16.15;2.60;;;;;;;10.37;80.28;99805.84;5007292;28;20077;-64
2022/11/18 07:26:34;;;;;;;16.52;2.92;;;;;;;10.28;80.28;99804.28;5007545;28;20502;-60
2022/11/18 07:29:02;;;;;;;15.40;3.00;;;;;;;10.27;80.81;99803.47;5009718;28;20050;-60
2022/11/18 07:31:30;;;;;;;16.88;3.72;;;;;;;10.23;80.86;99815.50;5006184;28;20042;-60
2022/11/18 07:33:58;;;;;;;13.25;2.92;;;;;;;10.31;80.65;99817.38;5005219;28;20129;-63
2022/11/18 07:36:27;;;;;;;18.05;3.22;;;;;;;10.23;80.66;99816.31;5008153;28;20064;-60
2022/11/18 07:39:03;;;;;;;13.93;2.70;;;;;;;10.13;81.07;99813.91;4994705;28;20054;-61
2022/11/18 07:41:30;;;;;;;14.32;2.92;;;;;;;10.35;80.79;99821.06;5007276;28;20057;-61
2022/11/18 07:43:59;;;;;;;14.05;2.88;;;;;;;10.91;84.54;99824.03;5001151;28;20118;-62
2022/11/18 07:46:31;;;;;;;15.85;2.95;;;;;;;11.15;80.65;99829.69;5023897;28;20405;-59
2022/11/18 07:49:00;;;;;;;15.82;2.70;;;;;;;11.40;78.45;99819.53;5002083;28;20057;-60
2022/11/18 07:51:29;;;;;;;20.83;2.85;;;;;;;11.62;75.90;99830.16;5001771;28;20058;-61
2022/11/18 07:53:56;;;;;;;14.13;2.87;;;;;;;12.39;76.34;99838.31;4993751;28;20068;-34
2022/11/18 07:56:24;;;;;;;13.85;4.72;;;;;;;13.02;69.16;99838.66;5001844;28;20042;-60
2022/11/18 07:58:55;;;;;;;18.73;3.03;;;;;;;12.90;69.89;99833.13;5002852;28;20057;-60
2022/11/18 08:01:24;;;;;;;20.05;3.30;;;;;;;12.92;70.33;99841.88;5004335;28;20058;-61
2022/11/18 08:03:51;;;;;;;16.17;3.03;;;;;;;13.72;67.36;99853.66;5009339;28;20053;-59
2022/11/18 08:06:19;;;;;;;15.68;2.90;;;;;;;13.37;66.46;99850.72;5010311;28;20340;-59
2022/11/18 08:08:46;;;;;;;13.70;2.83;;;;;;;13.57;66.45;99858.00;5004779;28;20042;-60
2022/11/18 08:11:16;;;;;;;16.73;3.53;;;;;;;13.73;67.21;99864.38;5014703;28;20501;-59
2022/11/18 08:13:49;;;;;;;14.27;2.60;;;;;;;13.91;65.51;99862.06;5003802;28;20083;-59
2022/11/18 08:16:18;;;;;;;12.35;2.67;;;;;;;13.03;68.67;99859.59;5005749;28;20052;-59
2022/11/18 08:18:46;;;;;;;12.27;2.75;;;;;;;13.71;68.32;99863.09;5003362;28;20607;-58
2022/11/18 08:21:13;;;;;;;10.80;2.10;;;;;;;12.52;70.95;99874.97;5005034;28;20050;-60
2022/11/18 08:23:41;;;;;;;14.25;2.17;;;;;;;12.51;71.48;99887.19;5002478;28;20370;-62
2022/11/18 08:26:13;;;;;;;16.17;2.40;;;;;;;12.55;72.11;99882.59;5004706;28;20485;-60
2022/11/18 08:28:41;;;;;;;10.82;2.58;;;;;;;12.98;70.38;99876.41;5001351;28;20050;-60
2022/11/18 08:31:10;;;;;;;13.13;4.03;;;;;;;13.09;70.33;99883.09;5000748;28;20058;-60
2022/11/18 08:33:38;;;;;;;12.55;3.85;;;;;;;13.30;70.44;99886.47;5011126;28;20054;-57
2022/11/18 08:36:17;;;;;;;9.93;3.15;;;;;;;13.92;66.65;99874.72;4999772;28;20420;-59
2022/11/18 08:38:44;;;;;;;10.73;3.10;;;;;;;14.06;67.33;99875.09;4997342;28;20053;-59
2022/11/18 08:41:13;;;;;;;13.15;2.55;;;;;;;14.23;66.42;99883.03;5005650;28;20053;-58
2022/11/18 08:43:41;;;;;;;11.47;2.47;;;;;;;14.06;67.00;99870.38;4992088;28;20058;-59
2022/11/18 08:46:08;;;;;;;9.68;2.08;;;;;;;14.53;65.51;99876.72;5001877;28;20045;-59
2022/11/18 08:48:36;;;;;;;11.48;2.45;;;;;;;14.28;66.22;99880.84;5002875;28;20053;-57
2022/11/18 08:51:03;;;;;;;16.25;2.45;;;;;;;13.92;67.50;99885.81;5002991;28;20060;-60
2022/11/18 08:53:31;;;;;;;13.68;2.67;;;;;;;14.27;65.98;99887.56;5005196;28;20076;-59
2022/11/18 08:56:00;;;;;;;11.20;2.55;;;;;;;14.15;66.63;99882.09;5006087;28;20406;-56
2022/11/18 08:58:27;;;;;;;10.25;2.45;;;;;;;13.45;68.53;99877.41;4987720;28;20053;-58
2022/11/18 09:00:54;;;;;;;13.00;2.50;;;;;;;13.47;68.77;99889.75;5007460;28;20054;-60
2022/11/18 09:03:22;;;;;;;13.90;3.00;;;;;;;14.04;66.63;99892.06;5005658;28;20046;-61
2022/11/18 09:05:49;;;;;;;10.10;2.63;;;;;;;14.43;65.46;99879.25;4996816;28;20051;-59
2022/11/18 09:08:17;;;;;;;7.70;2.38;;;;;;;14.36;64.52;99884.59;5023828;28;20046;-57
2022/11/18 09:10:44;;;;;;;10.18;2.17;;;;;;;14.33;65.42;99883.34;5005063;28;20064;-58
2022/11/18 09:13:11;;;;;;;9.20;2.35;;;;;;;14.51;65.38;99889.31;5007173;28;20516;-57
2022/11/18 09:15:59;;;;;;;13.82;2.90;;;;;;;13.99;65.48;99889.56;5009612;28;20050;-58
2022/11/18 09:18:27;;;;;;;10.38;2.40;;;;;;;13.80;68.00;99902.50;5010285;28;20050;-56
2022/11/18 09:20:59;;;;;;;9.57;1.75;;;;;;;13.90;67.86;99904.72;5011402;28;20054;-58
2022/11/18 09:23:26;;;;;;;10.98;2.20;;;;;;;14.46;65.96;99901.50;5011210;28;20574;-57
2022/11/18 09:26:03;;;;;;;12.80;2.45;;;;;;;14.01;67.39;99914.13;5006744;28;20050;-57
2022/11/18 09:28:31;;;;;;;7.60;2.00;;;;;;;14.50;65.68;99915.44;5004886;28;20065;-59
2022/11/18 09:31:02;;;;;;;9.02;2.13;;;;;;;14.40;66.11;99913.22;5002360;28;20541;-56
2022/11/18 09:33:30;;;;;;;10.15;2.13;;;;;;;13.20;67.46;99917.38;5009072;28;20046;-59
2022/11/18 09:35:57;;;;;;;11.80;2.00;;;;;;;13.85;69.04;99916.06;5006528;28;20048;-58
2022/11/18 09:38:24;;;;;;;9.60;2.55;;;;;;;14.13;68.12;99911.28;5004266;28;20057;-57
2022/11/18 09:41:02;;;;;;;12.32;2.53;;;;;;;14.26;66.99;99918.41;5003392;28;20049;-57
2022/11/18 09:43:46;;;;;;;10.32;2.35;;;;;;;14.05;66.93;99926.13;5007358;28;20050;-59
2022/11/18 09:46:26;;;;;;;13.18;2.53;;;;;;;14.22;67.62;99917.47;4986528;28;20054;-59
2022/11/18 09:49:14;;;;;;;17.73;2.92;;;;;;;13.91;68.73;99915.47;4988841;28;20477;-59
2022/11/18 09:51:45;;;;;;;13.35;2.30;;;;;;;13.79;68.83;99926.59;5003994;28;20057;-60
2022/11/18 09:54:18;;;;;;;;;;;;;;;14.55;66.86;99921.50;5001398;28;20042;-60
2022/11/18 09:56:47;;;;;;;10.30;2.10;;;;;;;14.64;65.13;99924.09;5008996;28;19928;-59
2022/11/18 09:59:17;;;;;;;13.25;2.63;;;;;;;14.17;66.62;99923.28;5008569;28;20046;-60
2022/11/18 10:01:45;;;;;;;;;;;;;;;14.26;65.78;99933.03;5008028;28;20058;-59
2022/11/18 10:04:16;;;;;;;12.43;2.50;;;;;;;14.37;65.95;99934.13;5008984;28;19935;-59
2022/11/18 10:06:45;;;;;;;10.60;2.28;;;;;;;14.21;65.39;99932.47;5011108;28;20045;-60
2022/11/18 10:09:29;;;;;;;11.57;2.25;;;;;;;14.40;66.07;99935.38;5007574;28;20062;-60
2022/11/18 10:12:21;;;;;;;11.05;2.20;;;;;;;14.56;65.37;99942.50;5004776;28;20068;-58
2022/11/18 10:15:07;;;;;;;8.63;2.10;;;;;;;14.32;64.71;99939.94;5005608;28;20639;-60
2022/11/18 10:18:07;;;;;;;9.57;2.20;;;;;;;14.60;66.73;99939.81;5008782;28;20060;-58
2022/11/18 10:20:44;;;;;;;8.35;2.05;;;;;;;14.79;64.91;99947.41;5008432;28;20058;-60
2022/11/18 10:23:20;;;;;;;9.05;1.90;;;;;;;14.52;65.00;99938.06;5016089;28;20378;-62
2022/11/18 10:25:47;;;;;;;7.88;1.80;;;;;;;14.80;64.89;99940.69;5007563;28;20050;-58
2022/11/18 10:28:28;;;;;;;10.95;2.13;;;;;;;14.77;65.56;99947.75;5010081;28;20184;-59
2022/11/18 10:31:09;;;;;;;12.90;2.30;;;;;;;14.71;63.96;99937.31;5004964;28;20450;-59
2022/11/18 10:33:37;;;;;;;9.40;2.45;;;;;;;15.16;64.81;99938.38;4994682;28;20434;-58
2022/11/18 10:36:17;;;;;;;13.38;2.10;;;;;;;14.89;64.25;99944.09;5001953;28;20058;-57
2022/11/18 10:38:44;;;;;;;13.27;2.93;;;;;;;15.45;63.54;99942.59;5001080;28;20050;-61
2022/11/18 10:41:19;;;;;;;9.13;2.22;;;;;;;15.46;62.59;99945.00;5007532;28;20049;-59
2022/11/18 10:43:54;;;;;;;10.43;2.20;;;;;;;15.76;62.63;99950.75;5008107;28;20444;-60
2022/11/18 10:46:29;;;;;;;11.77;2.40;;;;;;;15.29;61.97;99941.84;5008643;28;20045;-59
2022/11/18 10:49:09;;;;;;;12.90;2.20;;;;;;;15.30;63.22;99943.44;5006190;28;20452;-59
2022/11/18 10:51:39;;;;;;;11.52;2.53;;;;;;;15.65;63.15;99944.22;5005286;28;20054;-60
2022/11/18 10:54:08;;;;;;;;;;;;;;;16.02;61.56;99947.31;5008161;28;20050;-60
2022/11/18 10:56:50;;;;;;;13.10;2.05;;;;;;;14.80;63.42;99947.06;5007023;28;19929;-59
2022/11/18 10:59:25;;;;;;;11.15;2.05;;;;;;;14.72;66.01;99955.53;5003707;28;20053;-62
2022/11/18 11:02:02;;;;;;;10.95;2.00;;;;;;;14.28;66.86;99949.28;5007090;28;20043;-59
2022/11/18 11:04:36;;;;;;;7.65;1.80;;;;;;;15.14;65.13;99954.56;4998227;28;20175;-59
2022/11/18 11:07:20;;;;;;;10.23;1.75;;;;;;;15.49;64.09;99952.63;5013187;28;20484;-61
2022/11/18 11:10:03;;;;;;;10.05;2.53;;;;;;;15.44;60.75;99943.78;5007875;28;20054;-59
2022/11/18 11:12:46;;;;;;;12.40;1.98;;;;;;;15.11;63.35;99957.28;5011269;28;20050;-62
2022/11/18 11:15:16;;;;;;;11.35;2.15;;;;;;;15.09;65.69;99959.59;4994685;28;20054;-58
2022/11/18 11:20:43;;;;;;;10.63;2.40;;;;;;;14.01;65.37;99958.44;5011660;28;20076;-61
2022/11/18 11:23:12;;;;;;;12.48;2.25;;;;;;;14.17;67.39;99959.28;5006757;28;20054;-59
2022/11/18 11:26:02;;;;;;;10.27;2.33;;;;;;;14.99;67.15;99963.75;5005212;28;20044;-60
2022/11/18 11:29:24;;;;;;;12.70;2.40;;;;;;;14.96;63.77;99958.13;4999315;28;20309;-59
2022/11/18 11:32:02;;;;;;;16.60;3.47;;;;;;;14.79;64.99;99961.25;5026565;28;20057;-59
2022/11/18 11:34:54;;;;;;;16.38;3.45;;;;;;;14.51;65.83;99959.41;4996834;28;20054;-60
2022/11/18 11:37:21;;;;;;;15.48;4.18;;;;;;;14.61;69.01;99956.09;5001713;28;20042;-59
2022/11/18 11:40:01;;;;;;;16.88;3.40;;;;;;;15.22;67.42;99969.44;5000494;28;20046;-61
2022/11/18 11:42:41;;;;;;;16.80;7.00;;;;;;;14.70;66.68;99955.13;5007638;28;20062;-60
2022/11/18 11:45:09;;;;;;;19.75;8.43;;;;;;;14.47;63.05;99955.75;5004019;28;20057;-61
2022/11/18 11:47:46;;;;;;;22.92;7.70;;;;;;;14.90;66.76;99954.81;5013465;28;20046;-62
2022/11/18 11:50:31;;;;;;;23.25;8.43;;;;;;;15.43;65.12;99936.63;5004439;28;20402;-58
2022/11/18 11:53:27;;;;;;;15.90;5.25;;;;;;;15.70;62.00;99939.19;5002852;28;20065;-62
2022/11/18 11:56:11;;;;;;;20.33;6.75;;;;;;;15.22;61.74;99950.00;5015059;28;20050;-61
2022/11/18 11:59:06;;;;;;;18.73;7.10;;;;;;;15.42;64.90;99954.44;5012771;28;20058;-59
2022/11/18 12:01:49;;;;;;;12.63;5.47;;;;;;;15.04;61.27;99949.59;4997287;28;20038;-60
2022/11/18 12:04:32;;;;;;;17.88;5.80;;;;;;;15.10;66.71;99953.69;5014838;28;20050;-60
2022/11/18 12:07:00;;;;;;;19.42;7.28;;;;;;;15.07;64.43;99954.41;5018582;28;20054;-61
2022/11/18 12:09:42;;;;;;;16.50;5.97;;;;;;;14.83;63.22;99953.84;5000328;28;20050;-60